Time;durP1;ratioP1;P1;durP2;ratioP2;P2;SDS_P1;SDS_P2;PMS_P1;PMS_P2;Temp;Humidity;BMP_temperature;BMP_pressure;BME280_temperature;BME280_humidity;BME280_pressure;Samples;Min_cycle;Max_cycle;Signal;HPM_P1;HPM_P2
2022/10/26 00:02:11;;;;;;;0.50;0.50;;;14.20;99.90;15.10;100985.00;;;;5050664;28;20593;-73
2022/10/26 00:04:58;;;;;;;0.93;0.57;;;14.20;99.90;15.00;100985.00;;;;5035581;28;20179;-73
2022/10/26 00:07:23;;;;;;;1.27;1.00;;;14.10;99.90;15.50;100953.00;;;;5034663;28;20190;-73
2022/10/26 00:09:55;;;;;;;0.30;0.30;;;14.20;99.90;15.20;100994.00;;;;5035287;28;20173;-73
2022/10/26 00:12:26;;;;;;;1.37;1.30;;;14.30;99.90;15.40;100975.00;;;;5050988;28;20308;-73
2022/10/26 00:14:53;;;;;;;1.50;1.50;;;14.30;99.90;15.30;100976.00;;;;5050816;28;20194;-73
2022/10/26 00:17:27;;;;;;;0.40;0.40;;;14.40;99.90;15.40;100976.00;;;;5051132;28;20259;-73
2022/10/26 00:19:59;;;;;;;0.43;0.43;;;14.30;99.90;15.30;100961.00;;;;5035179;28;20163;-73
2022/10/26 00:22:26;;;;;;;0.30;0.30;;;14.30;99.90;15.50;100972.00;;;;5050874;28;20186;-74
2022/10/26 00:24:52;;;;;;;0.30;0.30;;;14.40;99.90;15.70;100965.00;;;;5050315;28;20626;-74
2022/10/26 00:27:18;;;;;;;0.30;0.30;;;14.50;99.90;15.60;100974.00;;;;5050787;28;20202;-73
2022/10/26 00:30:32;;;;;;;0.30;0.30;;;14.60;99.90;15.80;100976.00;;;;5035176;28;20171;-73
2022/10/26 00:33:34;;;;;;;0.70;0.70;;;14.60;99.90;15.60;100966.00;;;;5050454;28;20215;-73
2022/10/26 00:36:43;;;;;;;0.30;0.30;;;14.60;99.90;15.40;100974.00;;;;5049341;28;20171;-73
2022/10/26 00:40:04;;;;;;;0.30;0.30;;;14.40;99.90;15.40;100969.00;;;;5016875;28;20198;-73
2022/10/26 00:43:15;;;;;;;0.40;0.40;;;14.40;99.90;15.70;100965.00;;;;5033635;28;20551;-73
2022/10/26 00:46:20;;;;;;;0.50;0.50;;;14.50;99.90;15.30;100966.00;;;;5034149;28;20180;-72
2022/10/26 00:49:46;;;;;;;0.60;0.60;;;14.40;99.90;15.20;100967.00;;;;5035329;28;20175;-73
2022/10/26 00:52:55;;;;;;;0.20;0.20;;;14.30;99.90;15.10;100966.00;;;;5033826;28;20532;-73
2022/10/26 00:55:59;;;;;;;0.30;0.30;;;14.20;99.90;15.30;100953.00;;;;5015693;28;20191;-73
2022/10/26 00:59:07;;;;;;;0.60;0.60;;;14.20;99.90;15.20;100953.00;;;;5050754;28;20204;-72
2022/10/26 01:02:17;;;;;;;0.47;0.47;;;14.30;99.90;15.30;100899.00;;;;5033209;28;20205;-73
2022/10/26 01:05:08;;;;;;;1.03;0.57;;;14.30;99.90;15.30;100962.00;;;;5049451;28;20184;-73
2022/10/26 01:08:12;;;;;;;0.50;0.50;;;14.30;99.90;15.30;100953.00;;;;5049717;28;20192;-73
2022/10/26 01:11:30;;;;;;;1.03;1.03;;;14.30;99.90;15.30;100950.00;;;;5033317;28;20653;-73
2022/10/26 01:14:35;;;;;;;0.57;0.57;;;14.30;99.90;15.20;100906.00;;;;5033101;28;20187;-73
2022/10/26 01:20:29;;;;;;;0.27;0.27;;;14.30;99.90;15.40;100949.00;;;;5032038;28;20191;-73
2022/10/26 01:23:22;;;;;;;0.53;0.53;;;14.40;99.90;15.40;100938.00;;;;5032728;28;20208;-73
2022/10/26 01:26:20;;;;;;;0.20;0.20;;;14.50;99.90;15.50;100904.00;;;;5034597;28;20630;-73
2022/10/26 01:29:25;;;;;;;0.20;0.20;;;14.40;99.90;15.60;100942.00;;;;5034235;28;20177;-73
2022/10/26 01:32:38;;;;;;;4.50;0.87;;;14.50;99.90;15.30;100938.00;;;;5049008;28;20227;-72
2022/10/26 01:35:34;;;;;;;0.20;0.20;;;14.40;99.90;15.30;100944.00;;;;5011920;28;20184;-72
2022/10/26 01:38:43;;;;;;;0.53;0.53;;;14.30;99.90;15.30;100936.00;;;;5011880;28;20196;-72
2022/10/26 01:41:42;;;;;;;0.70;0.70;;;14.30;99.90;15.30;100938.00;;;;5033936;28;20191;-74
2022/10/26 01:44:45;;;;;;;0.73;0.73;;;14.20;99.90;15.30;100884.00;;;;5049442;28;20269;-74
2022/10/26 01:47:40;;;;;;;0.40;0.40;;;14.20;99.90;15.20;100931.00;;;;5049477;28;20187;-74
2022/10/26 01:50:47;;;;;;;0.40;0.40;;;14.20;99.90;15.10;100909.00;;;;5032382;28;20273;-74
2022/10/26 01:54:04;;;;;;;0.40;0.40;;;14.30;99.90;15.00;100926.00;;;;5022804;28;20227;-74
2022/10/26 01:57:26;;;;;;;0.23;0.23;;;14.20;99.90;15.20;100923.00;;;;5032687;28;20695;-73
2022/10/26 02:01:01;;;;;;;0.30;0.30;;;14.30;99.90;15.00;100890.00;;;;5033125;28;20164;-74
2022/10/26 02:04:18;;;;;;;0.37;0.37;;;14.20;99.90;15.30;100930.00;;;;5014336;28;20250;-74
2022/10/26 02:07:42;;;;;;;0.60;0.60;;;14.20;99.90;15.60;100925.00;;;;5017608;28;20272;-73
2022/10/26 02:11:13;;;;;;;0.40;0.40;;;14.40;99.90;15.50;100916.00;;;;5033888;28;20699;-74
2022/10/26 02:14:28;;;;;;;0.20;0.20;;;14.50;99.90;15.70;100915.00;;;;5011693;28;20281;-73
2022/10/26 02:17:33;;;;;;;0.40;0.40;;;14.60;99.90;15.90;100914.00;;;;4997776;28;20275;-73
2022/10/26 02:20:41;;;;;;;0.30;0.30;;;14.70;99.90;15.80;100915.00;;;;4994719;28;20606;-74
2022/10/26 02:23:51;;;;;;;0.30;0.30;;;14.70;99.90;15.60;100861.00;;;;4984942;28;20202;-74
2022/10/26 02:26:30;;;;;;;0.47;0.47;;;14.60;99.90;15.90;100907.00;;;;4959906;28;20654;-74
2022/10/26 02:29:48;;;;;;;3.40;0.87;;;14.70;99.90;15.80;100915.00;;;;4959350;28;20294;-74
2022/10/26 02:32:44;;;;;;;3.13;3.03;;;14.70;99.90;16.10;100905.00;;;;5014724;28;20705;-74
2022/10/26 02:35:32;;;;;;;0.37;0.37;;;14.90;99.90;15.90;100904.00;;;;5014764;28;20261;-74
2022/10/26 02:38:48;;;;;;;0.40;0.40;;;14.80;99.90;15.60;100911.00;;;;5048457;28;20196;-74
2022/10/26 02:41:40;;;;;;;0.30;0.30;;;14.80;99.90;15.90;100910.00;;;;5031705;28;20224;-74
2022/10/26 02:45:09;;;;;;;0.30;0.30;;;14.70;99.90;16.10;100908.00;;;;5048380;28;20183;-74
2022/10/26 02:48:12;;;;;;;0.50;0.50;;;14.80;99.90;15.30;100907.00;;;;5031424;28;20653;-75
2022/10/26 02:51:15;;;;;;;0.30;0.30;;;14.70;99.90;15.30;100875.00;;;;5048794;28;20568;-74
2022/10/26 02:54:05;;;;;;;0.30;0.30;;;14.50;99.90;15.10;100873.00;;;;5048228;28;20236;-74
2022/10/26 03:00:03;;;;;;;0.30;0.30;;;14.30;99.90;15.40;100873.00;;;;5033067;28;20195;-74
2022/10/26 03:03:17;;;;;;;0.30;0.30;;;14.40;99.90;15.70;100904.00;;;;5030554;28;20214;-74
2022/10/26 03:06:11;;;;;;;0.30;0.30;;;14.60;99.90;15.80;100886.00;;;;4997962;28;20213;-74
2022/10/26 03:09:26;;;;;;;0.30;0.30;;;14.60;99.90;15.80;100891.00;;;;5014108;28;20192;-74
2022/10/26 03:12:33;;;;;;;0.20;0.20;;;14.60;99.90;15.60;100897.00;;;;4998298;28;20195;-72
2022/10/26 03:15:42;;;;;;;1.23;1.17;;;14.60;99.90;15.80;100896.00;;;;5029998;28;20219;-75
2022/10/26 03:18:48;;;;;;;0.20;0.20;;;14.70;99.90;15.80;100894.00;;;;5013234;28;20283;-74
2022/10/26 03:21:48;;;;;;;0.50;0.30;;;14.70;99.90;15.40;100892.00;;;;5009767;28;20203;-74
2022/10/26 03:25:01;;;;;;;0.30;0.30;;;14.50;99.90;16.00;100836.00;;;;5033481;28;20208;-74
2022/10/26 03:28:00;;;;;;;0.30;0.30;;;14.70;99.90;16.00;100835.00;;;;5035370;28;20188;-75
2022/10/26 03:31:06;;;;;;;0.30;0.30;;;14.80;99.90;15.90;100897.00;;;;5049939;28;20189;-75
2022/10/26 03:34:03;;;;;;;0.27;0.27;;;14.70;99.90;15.80;100883.00;;;;5033890;28;20221;-74
2022/10/26 03:37:21;;;;;;;0.20;0.20;;;14.80;99.90;16.10;100892.00;;;;5035458;28;20192;-74
2022/10/26 03:40:11;;;;;;;0.30;0.30;;;14.90;99.90;16.00;100833.00;;;;5035021;28;20250;-75
2022/10/26 03:43:18;;;;;;;0.50;0.50;;;14.80;99.90;15.60;100867.00;;;;5013369;28;20221;-74
2022/10/26 03:46:24;;;;;;;0.77;0.77;;;14.70;99.90;15.60;100893.00;;;;5012042;28;20201;-74
2022/10/26 03:49:42;;;;;;;0.30;0.30;;;14.70;99.90;15.70;100882.00;;;;5012886;28;20207;-74
2022/10/26 03:52:35;;;;;;;0.20;0.20;;;14.80;99.90;15.80;100889.00;;;;4998769;28;20200;-74
2022/10/26 03:55:59;;;;;;;0.37;0.37;;;14.80;99.90;15.40;100899.00;;;;5034060;28;20197;-74
2022/10/26 03:58:56;;;;;;;0.27;0.27;;;14.70;99.90;15.50;100884.00;;;;5034879;28;20349;-74
2022/10/26 04:01:22;;;;;;;0.30;0.30;;;14.60;99.90;15.80;100892.00;;;;5032355;28;20291;-74
2022/10/26 04:03:48;;;;;;;0.20;0.20;;;14.70;99.90;15.60;100888.00;;;;5035551;28;20342;-74
2022/10/26 04:06:14;;;;;;;0.20;0.20;;;14.70;99.90;16.00;100882.00;;;;5034731;28;20179;-74
2022/10/26 04:08:40;;;;;;;0.70;0.70;;;14.90;99.90;15.90;100895.00;;;;5034429;28;20184;-74
2022/10/26 04:11:06;;;;;;;0.40;0.40;;;14.80;99.90;16.20;100893.00;;;;5035449;28;20180;-74
2022/10/26 04:13:32;;;;;;;0.23;0.23;;;14.90;99.90;16.40;100901.00;;;;5035838;28;20180;-74
2022/10/26 04:15:58;;;;;;;0.30;0.30;;;15.10;99.90;16.10;100838.00;;;;5034277;28;20173;-74
2022/10/26 04:18:24;;;;;;;0.30;0.30;;;15.00;99.90;16.20;100890.00;;;;5035581;28;20181;-74
2022/10/26 04:20:53;;;;;;;0.80;0.80;;;15.00;99.90;16.20;100888.00;;;;5034364;28;20173;-74
2022/10/26 04:23:28;;;;;;;0.30;0.30;;;15.10;99.90;16.10;100878.00;;;;5034290;28;20208;-75
2022/10/26 04:25:57;;;;;;;0.63;0.63;;;15.00;99.90;15.80;100905.00;;;;5035484;28;20614;-74
2022/10/26 04:28:25;;;;;;;0.30;0.30;;;14.90;99.90;16.00;100892.00;;;;5050894;28;20551;-74
2022/10/26 04:30:54;;;;;;;0.30;0.30;;;14.90;99.90;15.90;100888.00;;;;5034060;28;20230;-74
2022/10/26 04:33:21;;;;;;;0.50;0.50;;;14.90;99.90;15.90;100884.00;;;;5034002;28;20281;-76
2022/10/26 04:35:49;;;;;;;0.30;0.30;;;14.90;99.90;15.90;100856.00;;;;5050735;28;20787;-75
2022/10/26 04:38:15;;;;;;;0.30;0.30;;;14.90;99.90;15.70;100912.00;;;;5034146;28;20235;-74
2022/10/26 04:40:41;;;;;;;2.07;1.90;;;14.90;99.90;15.70;100895.00;;;;5034056;28;20180;-74
2022/10/26 04:43:07;;;;;;;0.20;0.20;;;14.80;99.90;15.70;100897.00;;;;5034056;28;20657;-74
2022/10/26 04:45:36;;;;;;;0.20;0.20;;;14.80;99.90;15.40;100897.00;;;;5033514;28;20197;-74
2022/10/26 04:48:12;;;;;;;0.20;0.20;;;14.70;99.90;15.60;100911.00;;;;5033958;28;20271;-74
2022/10/26 04:50:42;;;;;;;0.20;0.20;;;14.70;99.90;15.90;100901.00;;;;5016799;28;20268;-75
2022/10/26 04:53:12;;;;;;;0.20;0.20;;;14.80;99.90;15.80;100901.00;;;;5033863;28;20181;-75
2022/10/26 04:55:41;;;;;;;0.30;0.30;;;14.90;99.90;15.90;100905.00;;;;5034775;28;20169;-74
2022/10/26 04:58:07;;;;;;;1.70;0.97;;;14.90;99.90;15.80;100901.00;;;;5033529;28;20697;-75
2022/10/26 05:00:33;;;;;;;0.20;0.20;;;14.90;99.90;15.90;100920.00;;;;5034717;28;20168;-75
2022/10/26 05:03:01;;;;;;;0.20;0.20;;;14.90;99.90;16.20;100931.00;;;;5033374;28;20223;-74
2022/10/26 05:05:27;;;;;;;0.20;0.20;;;15.00;99.90;16.10;100916.00;;;;5033438;28;20649;-74
2022/10/26 05:07:54;;;;;;;0.40;0.40;;;15.00;99.90;16.20;100917.00;;;;5033815;28;20620;-75
2022/10/26 05:10:24;;;;;;;0.27;0.27;;;15.20;99.90;16.20;100897.00;;;;5033460;28;20174;-74
2022/10/26 05:12:58;;;;;;;0.20;0.20;;;15.20;99.90;16.10;100905.00;;;;5033477;28;20194;-74
2022/10/26 05:15:29;;;;;;;0.40;0.40;;;15.20;99.90;16.20;100899.00;;;;5032894;28;20642;-74
2022/10/26 05:18:02;;;;;;;0.20;0.20;;;15.20;99.90;15.90;100897.00;;;;5033556;28;20239;-74
2022/10/26 05:20:31;;;;;;;0.30;0.30;;;15.10;99.90;16.20;100914.00;;;;5032819;28;20186;-74
2022/10/26 05:22:58;;;;;;;0.27;0.27;;;15.20;99.90;16.10;100911.00;;;;5016880;28;20734;-74
2022/10/26 05:25:25;;;;;;;0.50;0.50;;;15.10;99.90;16.40;100909.00;;;;5032922;28;20190;-75
2022/10/26 05:27:51;;;;;;;0.20;0.20;;;15.20;99.90;16.40;100902.00;;;;5032760;28;20231;-74
2022/10/26 05:30:17;;;;;;;0.20;0.20;;;15.40;99.90;16.50;100909.00;;;;5032709;28;20535;-74
2022/10/26 05:32:43;;;;;;;0.20;0.20;;;15.40;99.90;16.60;100896.00;;;;5033712;28;20221;-75
2022/10/26 05:35:09;;;;;;;0.40;0.40;;;15.50;99.90;16.30;100890.00;;;;5032859;28;20229;-74
2022/10/26 05:37:38;;;;;;;0.20;0.20;;;15.40;99.90;16.50;100893.00;;;;5033005;28;20643;-74
2022/10/26 05:40:05;;;;;;;0.20;0.20;;;15.50;99.90;16.20;100857.00;;;;5032746;28;20541;-74
2022/10/26 05:42:30;;;;;;;0.40;0.40;;;15.40;99.90;16.10;100905.00;;;;5031731;28;20237;-73
2022/10/26 05:44:56;;;;;;;0.20;0.20;;;15.30;99.90;16.20;100889.00;;;;5033027;28;20599;-73
2022/10/26 05:47:22;;;;;;;0.30;0.30;;;15.30;99.90;16.10;100893.00;;;;5033643;28;20166;-73
2022/10/26 05:49:48;;;;;;;0.30;0.30;;;15.30;99.90;15.90;100887.00;;;;5033917;28;20182;-73
2022/10/26 05:52:14;;;;;;;0.30;0.30;;;15.20;99.90;16.10;100910.00;;;;5033371;28;20650;-73
2022/10/26 05:54:40;;;;;;;0.50;0.30;;;15.20;99.90;15.80;100915.00;;;;5032756;28;20184;-73
2022/10/26 05:57:11;;;;;;;0.20;0.20;;;15.20;99.90;15.90;100917.00;;;;5032149;28;20178;-73
2022/10/26 05:59:40;;;;;;;0.20;0.20;;;15.10;99.90;15.90;100929.00;;;;5016305;28;20525;-74
2022/10/26 06:02:32;;;;;;;0.20;0.20;;;15.10;99.90;16.10;100908.00;;;;5033251;28;20224;-74
2022/10/26 06:05:03;;;;;;;2.40;0.27;;;15.20;99.90;16.40;100923.00;;;;5032695;28;20206;-73
2022/10/26 06:07:30;;;;;;;0.23;0.23;;;15.30;99.90;16.20;100911.00;;;;5032263;28;20643;-73
2022/10/26 06:10:03;;;;;;;0.40;0.40;;;15.30;99.90;16.50;100932.00;;;;5032733;28;20182;-74
2022/10/26 06:12:34;;;;;;;0.20;0.20;;;15.40;99.90;16.30;100927.00;;;;5031981;28;20225;-74
2022/10/26 06:15:00;;;;;;;0.40;0.40;;;15.40;99.90;16.40;100882.00;;;;5032233;28;20204;-75
2022/10/26 06:18:13;;;;;;;0.30;0.30;;;15.40;99.90;16.10;100928.00;;;;5031987;28;20193;-75
2022/10/26 06:21:29;;;;;;;0.20;0.20;;;15.50;99.90;16.20;100937.00;;;;5032054;28;20181;-75
2022/10/26 06:24:16;;;;;;;0.20;0.20;;;15.40;99.90;16.30;100881.00;;;;5028670;28;20207;-74
2022/10/26 06:27:08;;;;;;;0.20;0.20;;;15.40;99.90;16.00;100930.00;;;;5033050;28;20204;-75
2022/10/26 06:30:06;;;;;;;0.20;0.20;;;15.30;99.90;16.10;100964.00;;;;5013696;28;20679;-74
2022/10/26 06:32:33;;;;;;;0.37;0.37;;;15.30;99.90;16.00;100970.00;;;;5010476;28;20672;-74
2022/10/26 06:35:21;;;;;;;0.30;0.30;;;15.20;99.90;16.00;100971.00;;;;5013660;28;20177;-74
2022/10/26 06:37:48;;;;;;;0.20;0.20;;;15.30;99.90;16.10;100931.00;;;;5013400;28;20238;-75
2022/10/26 06:40:16;;;;;;;0.87;0.30;;;15.20;99.90;16.20;100956.00;;;;5011809;28;20251;-75
2022/10/26 06:42:43;;;;;;;0.30;0.30;;;15.30;99.90;16.20;100956.00;;;;5012399;28;20210;-75
2022/10/26 06:45:15;;;;;;;0.30;0.30;;;15.30;99.90;16.10;100967.00;;;;4995712;28;20210;-75
2022/10/26 06:48:07;;;;;;;0.20;0.20;;;15.30;99.90;16.20;100957.00;;;;5012171;28;20282;-75
2022/10/26 06:50:37;;;;;;;0.47;0.33;;;15.40;99.90;16.30;100976.00;;;;4995754;28;20191;-75
2022/10/26 06:53:22;;;;;;;0.20;0.20;;;15.40;99.90;16.20;100977.00;;;;5013414;28;20182;-74
2022/10/26 06:55:56;;;;;;;0.40;0.40;;;15.40;99.90;16.40;100994.00;;;;4999694;28;20174;-75
2022/10/26 06:58:50;;;;;;;0.43;0.43;;;15.40;99.90;16.00;100994.00;;;;4999644;28;20185;-74
2022/10/26 07:01:17;;;;;;;0.20;0.20;;;15.50;99.90;16.00;100996.00;;;;5014559;28;20295;-75
2022/10/26 07:03:46;;;;;;;0.20;0.20;;;15.40;99.90;16.10;101003.00;;;;4999281;28;20540;-75
2022/10/26 07:06:15;;;;;;;0.20;0.20;;;15.40;99.90;16.10;101011.00;;;;5017218;28;20209;-72
2022/10/26 07:08:40;;;;;;;2.90;1.23;;;15.40;99.90;16.30;101009.00;;;;5015774;28;20224;-73
2022/10/26 07:11:08;;;;;;;0.20;0.20;;;15.50;99.90;16.40;101019.00;;;;5013124;28;20213;-72
2022/10/26 07:13:43;;;;;;;0.83;0.83;;;15.50;99.90;16.50;101012.00;;;;5015874;28;20198;-72
2022/10/26 07:16:08;;;;;;;0.27;0.27;;;15.60;99.90;16.10;101033.00;;;;5015623;28;20180;-72
2022/10/26 07:18:42;;;;;;;0.30;0.30;;;15.60;99.90;16.40;101023.00;;;;5032341;28;20199;-72
2022/10/26 07:21:26;;;;;;;0.43;0.43;;;15.60;99.90;16.40;101036.00;;;;5031831;28;20248;-72
2022/10/26 07:23:58;;;;;;;0.20;0.20;;;15.70;99.90;16.60;101028.00;;;;5014809;28;20274;-73
2022/10/26 07:26:29;;;;;;;0.20;0.20;;;15.80;99.90;16.70;100987.00;;;;5016764;28;20270;-73
2022/10/26 07:28:55;;;;;;;0.30;0.30;;;15.80;99.90;16.70;101020.00;;;;5048127;28;20188;-73
2022/10/26 07:31:25;;;;;;;0.30;0.30;;;15.90;99.90;16.60;101021.00;;;;5048320;28;20203;-73
2022/10/26 07:34:04;;;;;;;0.20;0.20;;;15.90;99.90;17.10;100985.00;;;;5015161;28;20226;-73
2022/10/26 07:36:40;;;;;;;0.30;0.30;;;16.00;99.90;16.90;101009.00;;;;5048328;28;20270;-73
2022/10/26 07:39:06;;;;;;;0.40;0.40;;;16.10;99.90;17.00;101034.00;;;;5049666;28;20219;-73
2022/10/26 07:41:38;;;;;;;0.27;0.27;;;16.20;99.90;16.90;101009.00;;;;5023825;28;20186;-73
2022/10/26 07:44:10;;;;;;;0.20;0.20;;;16.20;99.90;17.00;101031.00;;;;5015079;28;20263;-73
2022/10/26 07:46:39;;;;;;;0.20;0.20;;;16.30;99.90;16.90;101023.00;;;;5015038;28;20173;-73
2022/10/26 07:49:07;;;;;;;0.20;0.20;;;16.30;99.90;17.20;101021.00;;;;5016161;28;20177;-72
2022/10/26 07:51:33;;;;;;;1.30;0.50;;;16.40;99.90;17.30;101009.00;;;;5014966;28;20639;-73
2022/10/26 07:53:59;;;;;;;0.20;0.20;;;16.50;99.90;17.30;101025.00;;;;5014485;28;20182;-73
2022/10/26 07:56:25;;;;;;;0.30;0.30;;;16.60;99.90;17.30;100989.00;;;;5016023;28;20200;-73
2022/10/26 07:58:52;;;;;;;0.20;0.20;;;16.60;99.90;17.00;101000.00;;;;5015025;28;20678;-73
2022/10/26 08:01:19;;;;;;;0.27;0.27;;;16.50;99.90;17.20;101012.00;;;;5015587;28;20234;-73
2022/10/26 08:03:52;;;;;;;0.20;0.20;;;16.50;99.90;17.60;101079.00;;;;5018048;28;20192;-73
2022/10/26 08:06:19;;;;;;;0.30;0.30;;;16.70;99.90;17.80;101084.00;;;;5025287;28;20288;-74
2022/10/26 08:08:46;;;;;;;0.20;0.20;;;16.80;99.90;17.90;101072.00;;;;5033947;28;20178;-73
2022/10/26 08:11:12;;;;;;;0.20;0.20;;;17.00;99.90;18.20;101090.00;;;;5046201;28;20246;-74
2022/10/26 08:13:45;;;;;;;1.00;0.73;;;17.30;99.90;18.70;101085.00;;;;5035490;28;20273;-71
2022/10/26 08:16:34;;;;;;;0.47;0.47;;;17.60;99.90;18.20;101094.00;;;;5035538;28;20177;-70
2022/10/26 08:19:03;;;;;;;0.10;0.10;;;17.50;99.90;19.50;101103.00;;;;5035272;28;20190;-70
2022/10/26 08:21:29;;;;;;;0.20;0.20;;;18.10;99.90;19.00;101102.00;;;;5008247;28;20187;-70
2022/10/26 08:24:00;;;;;;;0.20;0.20;;;18.10;99.90;20.00;101105.00;;;;5014352;28;20180;-70
2022/10/26 08:26:26;;;;;;;1.10;0.45;;;18.60;99.90;19.40;101120.00;;;;5015573;28;20693;-70
2022/10/26 08:28:55;;;;;;;0.20;0.20;;;18.80;99.90;19.90;101119.00;;;;5014505;28;20179;-70
2022/10/26 08:31:23;;;;;;;0.98;0.60;;;18.90;99.90;19.20;101119.00;;;;5013785;28;20273;-67
2022/10/26 08:33:49;;;;;;;9.63;2.50;;;18.70;99.90;19.20;101104.00;;;;5014347;28;20172;-68
2022/10/26 08:36:23;;;;;;;0.10;0.10;;;18.50;99.90;19.60;101127.00;;;;5015159;28;20176;-68
2022/10/26 08:38:58;;;;;;;0.20;0.20;;;18.70;99.90;20.70;101084.00;;;;5014184;28;20179;-68
2022/10/26 08:41:51;;;;;;;1.55;1.30;;;19.20;99.90;20.40;101126.00;;;;5026038;28;20248;-68
2022/10/26 08:44:28;;;;;;;0.10;0.10;;;19.50;99.90;20.70;101136.00;;;;5031770;28;20620;-69
2022/10/26 08:47:15;;;;;;;0.20;0.20;;;19.40;99.90;21.00;101107.00;;;;5032445;28;20174;-68
2022/10/26 08:50:33;;;;;;;0.30;0.30;;;19.70;99.90;21.10;101161.00;;;;5019065;28;20549;-70
2022/10/26 08:53:03;;;;;;;0.10;0.10;;;20.00;99.90;20.40;101157.00;;;;4982487;28;20659;-70
2022/10/26 08:56:05;;;;;;;0.20;0.20;;;19.70;99.90;20.30;101145.00;;;;5013698;28;20531;-74
2022/10/26 08:59:05;;;;;;;0.10;0.10;;;19.60;99.90;20.00;101141.00;;;;5013759;28;20191;-72
2022/10/26 09:01:35;;;;;;;0.25;0.25;;;19.30;99.90;20.50;101158.00;;;;5007280;28;20679;-71
2022/10/26 09:04:08;;;;;;;1.30;1.20;;;19.30;99.90;19.40;101160.00;;;;5013612;28;20517;-72
2022/10/26 09:06:53;;;;;;;1.23;0.73;;;18.90;99.90;20.10;101163.00;;;;5028748;28;20190;-71
2022/10/26 09:10:08;;;;;;;0.20;0.20;;;19.20;99.90;21.50;101180.00;;;;5033598;28;20182;-71
2022/10/26 09:13:06;;;;;;;0.38;0.38;;;20.10;99.90;19.00;101158.00;;;;5045687;28;20195;-70
2022/10/26 09:16:27;;;;;;;0.30;0.30;;;19.00;99.90;19.60;101166.00;;;;5011092;28;20628;-71
2022/10/26 09:19:52;;;;;;;0.20;0.20;;;18.90;99.90;20.10;101172.00;;;;5029021;28;20282;-71
2022/10/26 09:22:48;;;;;;;0.32;0.30;;;19.40;99.90;20.00;101141.00;;;;5013590;28;20246;-71
2022/10/26 09:25:19;;;;;;;0.47;0.47;;;19.40;99.90;19.90;101191.00;;;;5013044;28;20651;-71
2022/10/26 09:28:15;;;;;;;0.17;0.17;;;19.30;99.90;21.40;101191.00;;;;4996723;28;20302;-72
2022/10/26 09:30:54;;;;;;;0.63;0.63;;;19.90;99.90;22.10;101223.00;;;;5012767;28;20179;-71
2022/10/26 09:33:24;;;;;;;0.68;0.68;;;20.80;99.90;20.10;101187.00;;;;5012087;28;20195;-70
2022/10/26 09:36:13;;;;;;;1.73;0.95;;;19.90;99.90;20.20;101217.00;;;;5011700;28;20234;-71
2022/10/26 09:39:07;;;;;;;0.60;0.40;;;19.70;99.90;19.10;101199.00;;;;5012274;28;20167;-70
2022/10/26 09:41:44;;;;;;;0.15;0.15;;;19.10;99.90;19.90;101162.00;;;;5027756;28;20184;-70
2022/10/26 09:44:59;;;;;;;0.70;0.47;;;19.10;99.90;21.50;101227.00;;;;5012739;28;20623;-71
2022/10/26 09:47:40;;;;;;;0.10;0.10;;;20.00;99.90;21.30;101200.00;;;;5045885;28;20184;-70
2022/10/26 09:50:24;;;;;;;0.10;0.10;;;20.50;99.90;21.40;101239.00;;;;5014731;28;20195;-71
2022/10/26 09:52:50;;;;;;;0.10;0.10;;;20.40;99.90;21.40;101241.00;;;;5032207;28;20194;-72
2022/10/26 09:55:20;;;;;;;0.25;0.25;;;20.50;99.90;21.20;101208.00;;;;5031661;28;20167;-71
2022/10/26 09:57:54;;;;;;;0.20;0.20;;;20.50;99.90;21.90;101275.00;;;;5016536;28;20179;-71
2022/10/26 10:00:23;;;;;;;1.00;0.68;;;20.60;99.90;20.70;101252.00;;;;5032323;28;20163;-68
2022/10/26 10:02:54;;;;;;;0.30;0.30;;;20.20;99.90;21.80;101216.00;;;;5031982;28;20570;-68
2022/10/26 10:05:34;;;;;;;0.20;0.20;;;20.50;99.90;22.30;101279.00;;;;5031981;28;20182;-68
2022/10/26 10:08:16;;;;;;;3.65;0.50;;;20.90;99.90;20.60;101269.00;;;;5031787;28;20514;-68
2022/10/26 10:11:14;;;;;;;0.30;0.30;;;20.30;99.90;20.80;101279.00;;;;5015736;28;20226;-68
2022/10/26 10:13:42;;;;;;;0.20;0.20;;;20.20;99.90;20.20;101272.00;;;;5031987;28;20618;-67
2022/10/26 10:16:24;;;;;;;0.10;0.10;;;19.90;99.90;21.20;101294.00;;;;5032545;28;20225;-68
2022/10/26 10:18:58;;;;;;;0.10;0.10;;;20.10;99.90;21.20;101304.00;;;;5031590;28;20183;-68
2022/10/26 10:33:44;;;;;;;0.60;0.60;;;20.00;99.90;21.80;101337.00;;;;5070282;28;20539;-68
2022/10/26 10:36:15;;;;;;;0.55;0.52;;;20.80;99.90;20.70;101327.00;;;;5044834;28;20235;-68
2022/10/26 10:38:49;;;;;;;0.10;0.10;;;20.40;99.90;22.10;101335.00;;;;5065867;28;20193;-67
2022/10/26 10:41:58;;;;;;;0.10;0.10;;;20.60;99.90;22.40;101349.00;;;;5049354;28;20171;-68
2022/10/26 10:45:14;;;;;;;0.10;0.10;;;20.90;99.90;21.70;101368.00;;;;5049680;28;20190;-68
2022/10/26 10:48:19;;;;;;;0.20;0.20;;;21.20;99.90;22.00;101379.00;;;;5032255;28;20315;-68
2022/10/26 10:51:50;;;;;;;0.10;0.10;;;21.30;99.90;22.40;101390.00;;;;5047273;28;20224;-68
2022/10/26 10:54:50;;;;;;;1.48;1.38;;;21.40;99.90;20.10;101356.00;;;;5049280;28;20648;-67
2022/10/26 10:57:57;;;;;;;0.63;0.63;;;20.10;99.90;20.30;101350.00;;;;5064268;28;20201;-67
2022/10/26 11:00:49;;;;;;;1.20;0.80;;;19.80;99.90;19.80;101364.00;;;;5048450;28;20284;-68
2022/10/26 11:04:32;;;;;;;0.77;0.77;;;19.60;99.90;19.40;101294.00;;;;5048100;28;20236;-67
2022/10/26 11:07:43;;;;;;;0.30;0.30;;;19.30;99.90;19.90;101364.00;;;;5043688;28;20174;-67
2022/10/26 11:10:50;;;;;;;0.55;0.55;;;19.30;99.90;20.10;101362.00;;;;5048647;28;20193;-67
2022/10/26 11:14:02;;;;;;;0.10;0.10;;;19.40;99.90;21.10;101363.00;;;;5048341;28;20621;-68
2022/10/26 11:17:11;;;;;;;0.20;0.20;;;19.90;99.90;20.90;101361.00;;;;5033959;28;20544;-67
2022/10/26 11:20:12;;;;;;;0.10;0.10;;;20.10;99.90;21.20;101358.00;;;;5008909;28;20638;-68
2022/10/26 11:23:19;;;;;;;0.10;0.10;;;20.10;99.90;22.00;101338.00;;;;4988225;28;20231;-68
2022/10/26 11:26:20;;;;;;;0.10;0.10;;;20.80;99.90;22.70;101341.00;;;;4987826;28;20702;-68
2022/10/26 11:29:42;;;;;;;0.40;0.40;;;21.20;99.90;23.00;101416.00;;;;5000329;28;20191;-68
2022/10/26 11:32:46;;;;;;;0.43;0.43;;;21.60;99.90;22.70;101409.00;;;;4981049;28;20239;-68
2022/10/26 11:36:17;;;;;;;0.45;0.45;;;21.30;99.90;23.30;101429.00;;;;4990938;28;20191;-68
2022/10/26 11:39:24;;;;;;;0.10;0.10;;;22.00;99.90;22.60;101416.00;;;;4929963;29;20199;-68
2022/10/26 11:43:01;;;;;;;5.20;2.83;;;21.60;99.90;21.00;101388.00;;;;4930057;29;20261;-67
2022/10/26 11:46:43;;;;;;;0.20;0.20;;;20.70;99.90;22.40;101406.00;;;;4917187;29;20278;-75
2022/10/26 11:49:47;;;;;;;0.10;0.10;;;20.70;99.90;21.90;101425.00;;;;4934879;29;20228;-75
2022/10/26 11:52:42;;;;;;;0.22;0.20;;;21.20;99.90;21.60;101387.00;;;;4920504;29;20296;-75
2022/10/26 11:55:31;;;;;;;0.10;0.10;;;21.00;99.90;23.70;101436.00;;;;4929884;29;20206;-76
2022/10/26 11:58:40;;;;;;;0.10;0.10;;;21.70;99.90;22.30;101426.00;;;;4936252;29;20206;-76
2022/10/26 12:01:13;;;;;;;0.30;0.28;;;21.50;99.90;22.10;101410.00;;;;4919659;29;20426;-75
2022/10/26 12:03:52;;;;;;;0.10;0.10;;;21.30;99.90;23.00;101414.00;;;;4990504;28;20224;-75
2022/10/26 12:06:30;;;;;;;5.45;2.33;;;21.70;99.90;23.60;101448.00;;;;5040877;28;20191;-75
2022/10/26 12:09:14;;;;;;;0.10;0.10;;;22.10;99.90;22.60;101444.00;;;;5014279;28;20186;-76
2022/10/26 12:12:21;;;;;;;0.30;0.30;;;22.00;99.90;22.40;101426.00;;;;5033846;28;20199;-75
2022/10/26 12:15:23;;;;;;;2.15;2.05;;;21.30;99.90;23.40;101453.00;;;;5050420;28;20224;-75
2022/10/26 12:18:02;;;;;;;0.10;0.10;;;21.80;99.90;23.70;101451.00;;;;5035571;28;20190;-75
2022/10/26 12:20:53;;;;;;;0.10;0.10;;;22.20;99.90;23.20;101470.00;;;;5039375;28;20183;-76
2022/10/26 12:23:42;;;;;;;0.10;0.10;;;22.30;99.90;23.70;101469.00;;;;5050381;28;20179;-75
2022/10/26 12:26:23;;;;;;;0.75;0.30;;;22.40;99.90;22.30;101462.00;;;;5065320;28;20205;-76
2022/10/26 12:29:23;;;;;;;0.17;0.13;;;22.00;99.90;22.90;101461.00;;;;5054809;28;20170;-76
2022/10/26 12:31:51;;;;;;;0.10;0.10;;;21.70;99.90;22.60;101462.00;;;;5045171;28;20293;-76